Time;durP1;ratioP1;P1;durP2;ratioP2;P2;SDS_P1;SDS_P2;PMS_P1;PMS_P2;Temp;Humidity;BMP_temperature;BMP_pressure;BME280_temperature;BME280_humidity;BME280_pressure;Samples;Min_cycle;Max_cycle;Signal;HPM_P1;HPM_P2
2023/07/25 00:01:01;;;;;;;2.17;0.80;;;;;;;;;;5068589;28;20198;-63
2023/07/25 00:03:28;;;;;;;0.70;0.70;;;;;;;;;;5067499;28;20582;-63
2023/07/25 00:05:57;;;;;;;0.90;0.90;;;;;;;;;;5068764;28;21092;-64
2023/07/25 00:08:24;;;;;;;1.15;0.93;;;;;;;;;;5064524;28;20206;-64
2023/07/25 00:10:51;;;;;;;0.68;0.68;;;;;;;;;;5068379;28;20264;-63
2023/07/25 00:13:18;;;;;;;0.80;0.80;;;;;;;;;;5067398;28;20214;-63
2023/07/25 00:15:45;;;;;;;0.88;0.88;;;;;;;;;;5049478;28;20211;-63
2023/07/25 00:18:12;;;;;;;0.70;0.70;;;;;;;;;;5053281;28;21001;-63
2023/07/25 00:20:39;;;;;;;2.35;0.88;;;;;;;;;;5066445;28;20211;-63
2023/07/25 00:23:08;;;;;;;0.80;0.80;;;;;;;;;;5060413;28;20261;-64
2023/07/25 00:25:35;;;;;;;0.63;0.63;;;;;;;;;;5058171;28;20292;-63
2023/07/25 00:28:02;;;;;;;0.80;0.80;;;;;;;;;;5065509;28;20575;-63
2023/07/25 00:30:29;;;;;;;1.00;0.90;;;;;;;;;;5048361;28;20294;-63
2023/07/25 00:33:02;;;;;;;0.60;0.60;;;;;;;;;;5049362;28;20267;-63
2023/07/25 00:35:29;;;;;;;0.80;0.80;;;;;;;;;;5065421;28;20672;-64
2023/07/25 00:37:56;;;;;;;1.95;0.93;;;;;;;;;;5065077;28;20218;-63
2023/07/25 00:40:25;;;;;;;3.70;1.17;;;;;;;;;;5059524;28;20206;-63
2023/07/25 00:42:55;;;;;;;0.75;0.75;;;;;;;;;;5067521;28;20223;-63
2023/07/25 00:45:22;;;;;;;2.15;0.80;;;;;;;;;;5047734;28;20228;-64
2023/07/25 00:47:49;;;;;;;0.90;0.90;;;;;;;;;;5047680;28;20300;-63
2023/07/25 00:50:16;;;;;;;0.90;0.90;;;;;;;;;;5052967;28;20214;-63
2023/07/25 00:52:43;;;;;;;3.83;0.90;;;;;;;;;;5066955;28;20211;-63
2023/07/25 00:55:10;;;;;;;2.03;0.65;;;;;;;;;;5067349;28;20195;-64
2023/07/25 00:57:38;;;;;;;0.90;0.90;;;;;;;;;;5067201;28;20215;-64
2023/07/25 01:00:06;;;;;;;0.80;0.80;;;;;;;;;;5045087;28;20215;-64
2023/07/25 01:02:34;;;;;;;0.70;0.70;;;;;;;;;;5045547;28;20212;-63
2023/07/25 01:05:01;;;;;;;2.80;0.73;;;;;;;;;;5046230;28;20310;-64
2023/07/25 01:07:28;;;;;;;0.93;0.77;;;;;;;;;;5045779;28;20293;-64
2023/07/25 01:09:55;;;;;;;0.80;0.80;;;;;;;;;;5047231;28;20215;-64
2023/07/25 01:12:24;;;;;;;1.30;0.70;;;;;;;;;;5047853;28;20663;-64
2023/07/25 01:14:52;;;;;;;1.75;0.70;;;;;;;;;;5050657;28;20639;-64
2023/07/25 01:17:22;;;;;;;1.85;1.00;;;;;;;;;;5065287;28;20226;-64
2023/07/25 01:19:50;;;;;;;1.00;1.00;;;;;;;;;;5067049;28;20234;-64
2023/07/25 01:22:17;;;;;;;1.20;1.20;;;;;;;;;;5065762;28;20198;-64
2023/07/25 01:24:46;;;;;;;0.93;0.80;;;;;;;;;;5066061;28;20229;-64
2023/07/25 01:27:13;;;;;;;1.60;0.80;;;;;;;;;;5062221;28;20215;-63
2023/07/25 01:29:40;;;;;;;0.90;0.90;;;;;;;;;;5048738;28;20211;-64
2023/07/25 01:32:08;;;;;;;0.70;0.70;;;;;;;;;;5048691;28;20203;-63
2023/07/25 01:34:35;;;;;;;0.95;0.73;;;;;;;;;;5048196;28;20569;-64
2023/07/25 01:37:02;;;;;;;1.05;0.90;;;;;;;;;;5051864;28;20290;-64
2023/07/25 01:39:29;;;;;;;0.70;0.70;;;;;;;;;;5067026;28;20211;-63
2023/07/25 01:41:58;;;;;;;1.23;0.82;;;;;;;;;;5063899;28;20215;-63
2023/07/25 01:44:25;;;;;;;0.88;0.88;;;;;;;;;;5054626;28;20239;-64
2023/07/25 01:46:52;;;;;;;1.75;0.77;;;;;;;;;;5047639;28;20204;-64
2023/07/25 01:49:19;;;;;;;0.85;0.85;;;;;;;;;;5048982;28;20203;-64
2023/07/25 01:51:46;;;;;;;1.02;0.98;;;;;;;;;;5066578;28;20226;-64
2023/07/25 01:54:13;;;;;;;1.00;1.00;;;;;;;;;;5064336;28;20213;-64
2023/07/25 01:56:40;;;;;;;0.75;0.75;;;;;;;;;;5059284;28;20545;-63
2023/07/25 01:59:08;;;;;;;3.15;0.90;;;;;;;;;;5066981;28;20210;-64
2023/07/25 02:01:34;;;;;;;0.60;0.60;;;;;;;;;;5065527;28;20206;-64
2023/07/25 02:04:01;;;;;;;0.90;0.90;;;;;;;;;;5055490;28;20207;-64
2023/07/25 02:06:28;;;;;;;0.73;0.73;;;;;;;;;;5047769;28;20227;-64
2023/07/25 02:08:55;;;;;;;0.75;0.75;;;;;;;;;;5047486;28;20212;-64
2023/07/25 02:11:22;;;;;;;0.70;0.70;;;;;;;;;;5059907;28;20215;-64
2023/07/25 02:13:49;;;;;;;0.90;0.90;;;;;;;;;;5064979;28;20207;-64
2023/07/25 02:16:18;;;;;;;0.98;0.98;;;;;;;;;;5057637;28;20204;-64
2023/07/25 02:18:45;;;;;;;1.00;1.00;;;;;;;;;;5046911;28;20211;-64
2023/07/25 02:21:12;;;;;;;0.90;0.90;;;;;;;;;;5051447;28;20689;-64
2023/07/25 02:23:39;;;;;;;0.95;0.95;;;;;;;;;;5048376;28;20207;-64
2023/07/25 02:26:06;;;;;;;2.38;1.10;;;;;;;;;;5052466;28;20231;-65
2023/07/25 02:28:33;;;;;;;1.00;1.00;;;;;;;;;;5051597;28;20219;-64
2023/07/25 02:31:00;;;;;;;0.88;0.88;;;;;;;;;;5050836;28;20211;-64
2023/07/25 02:33:28;;;;;;;2.45;1.00;;;;;;;;;;5050249;28;20238;-64
2023/07/25 02:35:55;;;;;;;1.00;1.00;;;;;;;;;;5050320;28;20203;-65
2023/07/25 02:38:23;;;;;;;1.00;1.00;;;;;;;;;;5066242;28;20203;-64
2023/07/25 02:40:50;;;;;;;1.08;1.08;;;;;;;;;;5050571;28;20251;-64
2023/07/25 02:43:17;;;;;;;1.75;1.00;;;;;;;;;;5050614;28;20235;-64
2023/07/25 02:45:44;;;;;;;0.90;0.90;;;;;;;;;;5064610;28;20241;-64
2023/07/25 02:48:11;;;;;;;1.05;1.05;;;;;;;;;;5069880;28;20218;-64
2023/07/25 02:50:39;;;;;;;0.90;0.90;;;;;;;;;;5069980;28;20203;-64
2023/07/25 02:53:06;;;;;;;1.08;1.08;;;;;;;;;;5068482;28;20234;-64
2023/07/25 02:55:33;;;;;;;0.95;0.95;;;;;;;;;;5063455;28;20670;-64
2023/07/25 02:58:00;;;;;;;0.90;0.90;;;;;;;;;;5062282;28;20697;-64
2023/07/25 03:00:27;;;;;;;1.00;1.00;;;;;;;;;;5056636;28;20200;-64
2023/07/25 03:02:54;;;;;;;0.90;0.90;;;;;;;;;;5055917;28;20219;-64
2023/07/25 03:05:21;;;;;;;1.30;1.08;;;;;;;;;;5065450;28;20239;-63
2023/07/25 03:07:50;;;;;;;1.58;1.48;;;;;;;;;;5066366;28;20222;-64
2023/07/25 03:10:17;;;;;;;1.25;1.25;;;;;;;;;;5067963;28;20207;-64
2023/07/25 03:12:44;;;;;;;1.13;1.08;;;;;;;;;;5065401;28;20207;-64
2023/07/25 03:15:11;;;;;;;1.15;1.15;;;;;;;;;;5068820;28;20199;-64
2023/07/25 03:17:38;;;;;;;1.13;1.13;;;;;;;;;;5052406;28;20344;-63
2023/07/25 03:20:07;;;;;;;1.80;1.80;;;;;;;;;;5069385;28;20292;-63
2023/07/25 03:22:34;;;;;;;1.23;1.23;;;;;;;;;;5069898;28;20211;-63
2023/07/25 03:25:02;;;;;;;1.35;1.35;;;;;;;;;;5049670;28;20227;-63
2023/07/25 03:27:29;;;;;;;1.65;1.20;;;;;;;;;;5064101;28;20199;-62
2023/07/25 03:29:56;;;;;;;1.50;1.50;;;;;;;;;;5069308;28;20681;-63
2023/07/25 03:32:23;;;;;;;2.97;1.60;;;;;;;;;;5069210;28;20214;-63
2023/07/25 03:34:50;;;;;;;1.75;1.65;;;;;;;;;;5054297;28;20214;-63
2023/07/25 03:37:17;;;;;;;1.60;1.50;;;;;;;;;;5050557;28;20211;-63
2023/07/25 03:39:44;;;;;;;1.80;1.63;;;;;;;;;;5049008;28;20204;-63
2023/07/25 03:42:13;;;;;;;2.67;1.55;;;;;;;;;;5049424;28;20211;-63
2023/07/25 03:44:40;;;;;;;1.77;1.67;;;;;;;;;;5057382;28;20780;-63
2023/07/25 03:47:07;;;;;;;3.50;1.70;;;;;;;;;;5068725;28;20275;-63
2023/07/25 03:49:34;;;;;;;1.90;1.90;;;;;;;;;;5066372;28;20233;-63
2023/07/25 03:52:01;;;;;;;1.85;1.83;;;;;;;;;;5068817;28;20884;-63
2023/07/25 03:54:28;;;;;;;1.92;1.90;;;;;;;;;;5064606;28;20209;-63
2023/07/25 03:56:55;;;;;;;1.70;1.63;;;;;;;;;;5060317;28;20215;-63
2023/07/25 03:59:30;;;;;;;3.22;2.20;;;;;;;;;;5049530;28;20246;-64
2023/07/25 04:01:57;;;;;;;2.65;1.98;;;;;;;;;;5055348;28;20630;-63
2023/07/25 04:04:24;;;;;;;2.50;2.40;;;;;;;;;;5053701;28;20211;-64
2023/07/25 04:06:51;;;;;;;2.53;2.42;;;;;;;;;;5066451;28;20234;-63
2023/07/25 04:09:18;;;;;;;2.90;2.72;;;;;;;;;;5069052;28;20302;-63
2023/07/25 04:11:45;;;;;;;2.78;2.58;;;;;;;;;;5053738;28;20223;-64
2023/07/25 04:14:12;;;;;;;5.20;1.95;;;;;;;;;;5052387;28;20211;-63
2023/07/25 04:16:40;;;;;;;2.17;2.08;;;;;;;;;;5061986;28;20230;-63
2023/07/25 04:19:07;;;;;;;3.15;2.55;;;;;;;;;;5055370;28;20208;-64
2023/07/25 04:21:34;;;;;;;2.50;2.30;;;;;;;;;;5068586;28;20214;-65
2023/07/25 04:24:01;;;;;;;5.47;2.40;;;;;;;;;;5048675;28;20729;-62
2023/07/25 04:26:29;;;;;;;2.92;2.72;;;;;;;;;;5048757;28;20227;-62
2023/07/25 04:28:56;;;;;;;3.05;2.83;;;;;;;;;;5048465;28;20321;-63
2023/07/25 04:31:23;;;;;;;3.25;2.75;;;;;;;;;;5066740;28;20206;-63
2023/07/25 04:33:51;;;;;;;2.50;2.40;;;;;;;;;;5048618;28;20689;-63
2023/07/25 04:36:18;;;;;;;2.55;2.45;;;;;;;;;;5056535;28;20207;-63
2023/07/25 04:38:45;;;;;;;3.10;2.78;;;;;;;;;;5050488;28;20200;-63
2023/07/25 04:41:12;;;;;;;2.72;2.55;;;;;;;;;;5049169;28;20262;-64
2023/07/25 04:43:39;;;;;;;2.72;2.63;;;;;;;;;;5068691;28;20234;-63
2023/07/25 04:46:06;;;;;;;2.45;2.20;;;;;;;;;;5068408;28;20227;-63
2023/07/25 04:48:33;;;;;;;2.03;2.03;;;;;;;;;;5068487;28;20215;-63
2023/07/25 04:51:02;;;;;;;3.22;2.92;;;;;;;;;;5063290;28;20549;-63
2023/07/25 04:53:29;;;;;;;3.00;2.33;;;;;;;;;;5048488;28;20238;-63
2023/07/25 04:55:56;;;;;;;2.80;2.60;;;;;;;;;;5064382;28;20213;-63
2023/07/25 04:58:23;;;;;;;2.38;2.28;;;;;;;;;;5067312;28;20219;-63
2023/07/25 05:00:50;;;;;;;2.40;2.30;;;;;;;;;;5054166;28;20207;-64
2023/07/25 05:03:17;;;;;;;2.40;2.20;;;;;;;;;;5062358;28;20207;-64
2023/07/25 05:05:44;;;;;;;3.00;2.80;;;;;;;;;;5046670;28;20621;-63
2023/07/25 05:08:12;;;;;;;2.17;2.05;;;;;;;;;;5052473;28;20547;-64
2023/07/25 05:10:41;;;;;;;2.97;2.72;;;;;;;;;;5068044;28;20414;-64
2023/07/25 05:13:08;;;;;;;4.72;2.70;;;;;;;;;;5068641;28;20218;-64
2023/07/25 05:15:35;;;;;;;2.58;2.47;;;;;;;;;;5067334;28;20206;-64
2023/07/25 05:18:02;;;;;;;6.22;2.83;;;;;;;;;;5065591;28;20242;-63
2023/07/25 05:20:29;;;;;;;2.55;2.45;;;;;;;;;;5060867;28;20207;-63
2023/07/25 05:23:23;;;;;;;3.30;2.83;;;;;;;;;;5048468;28;20219;-63
2023/07/25 05:25:52;;;;;;;2.88;2.63;;;;;;;;;;5048785;28;20230;-63
2023/07/25 05:28:19;;;;;;;2.33;2.20;;;;;;;;;;5067272;28;20207;-60
2023/07/25 05:30:46;;;;;;;2.92;2.83;;;;;;;;;;5063030;28;20203;-62
2023/07/25 05:33:13;;;;;;;3.20;3.00;;;;;;;;;;5067637;28;20218;-63
2023/07/25 05:35:40;;;;;;;2.55;2.45;;;;;;;;;;5067145;28;20202;-63
2023/07/25 05:38:08;;;;;;;2.95;2.75;;;;;;;;;;5067771;28;20216;-63
2023/07/25 05:40:35;;;;;;;5.72;3.58;;;;;;;;;;5065106;28;20306;-64
2023/07/25 05:43:03;;;;;;;4.32;4.03;;;;;;;;;;5047494;28;20247;-63
2023/07/25 05:45:31;;;;;;;9.35;4.18;;;;;;;;;;5047736;28;20219;-64
2023/07/25 05:47:58;;;;;;;4.47;4.18;;;;;;;;;;5054301;28;20306;-64
2023/07/25 05:50:25;;;;;;;4.22;3.92;;;;;;;;;;5052165;28;20566;-63
2023/07/25 05:52:52;;;;;;;4.85;4.45;;;;;;;;;;5047786;28;20219;-63
2023/07/25 05:55:19;;;;;;;5.47;4.32;;;;;;;;;;5056799;28;20862;-63
2023/07/25 05:57:46;;;;;;;5.50;5.00;;;;;;;;;;5050964;28;20211;-63
2023/07/25 06:00:15;;;;;;;5.68;5.15;;;;;;;;;;5066977;28;20204;-64
2023/07/25 06:02:42;;;;;;;6.47;5.85;;;;;;;;;;5060316;28;20200;-64
2023/07/25 06:05:09;;;;;;;7.00;5.78;;;;;;;;;;5050900;28;20211;-63
2023/07/25 06:07:36;;;;;;;6.18;5.38;;;;;;;;;;5070505;28;20238;-63
2023/07/25 06:10:03;;;;;;;8.73;5.38;;;;;;;;;;5071214;28;20581;-63
2023/07/25 06:12:31;;;;;;;7.55;5.35;;;;;;;;;;5071438;28;20209;-63
2023/07/25 06:14:58;;;;;;;6.32;5.72;;;;;;;;;;5070505;28;20215;-63
2023/07/25 06:17:26;;;;;;;6.30;5.70;;;;;;;;;;5071193;28;20238;-63
2023/07/25 06:19:53;;;;;;;6.35;5.15;;;;;;;;;;5070578;28;20627;-63
2023/07/25 06:22:20;;;;;;;9.43;5.88;;;;;;;;;;5053783;28;20578;-63
2023/07/25 06:24:48;;;;;;;5.78;5.28;;;;;;;;;;5051401;28;20219;-63
2023/07/25 06:27:15;;;;;;;5.85;5.38;;;;;;;;;;5070688;28;20581;-63
2023/07/25 06:29:42;;;;;;;7.90;4.72;;;;;;;;;;5070872;28;20210;-63
2023/07/25 06:32:09;;;;;;;5.93;5.35;;;;;;;;;;5069434;28;20207;-63
2023/07/25 06:34:38;;;;;;;7.22;5.93;;;;;;;;;;5064032;28;20200;-63
2023/07/25 06:37:05;;;;;;;7.22;5.38;;;;;;;;;;5061675;28;20202;-62
2023/07/25 06:39:32;;;;;;;5.60;5.10;;;;;;;;;;5070587;28;20207;-62
2023/07/25 06:41:59;;;;;;;5.75;5.25;;;;;;;;;;5070407;28;20434;-62
2023/07/25 06:44:26;;;;;;;6.00;5.30;;;;;;;;;;5069897;28;20231;-62
2023/07/25 06:46:53;;;;;;;6.43;5.75;;;;;;;;;;5067444;28;20232;-61
2023/07/25 06:49:20;;;;;;;5.63;5.13;;;;;;;;;;5050015;28;20203;-60
2023/07/25 06:51:49;;;;;;;15.68;5.47;;;;;;;;;;5052328;28;20211;-62
2023/07/25 06:54:16;;;;;;;4.75;4.35;;;;;;;;;;5056981;28;20239;-65
2023/07/25 06:56:43;;;;;;;5.50;4.85;;;;;;;;;;5051885;28;20207;-65
2023/07/25 06:59:10;;;;;;;5.57;5.07;;;;;;;;;;5070327;28;20569;-63
2023/07/25 07:01:37;;;;;;;5.32;4.80;;;;;;;;;;5061239;28;20432;-65
2023/07/25 07:04:04;;;;;;;6.05;5.45;;;;;;;;;;5049995;28;20208;-63
2023/07/25 07:06:31;;;;;;;5.57;5.05;;;;;;;;;;5055324;28;20246;-63
2023/07/25 07:08:59;;;;;;;5.63;5.05;;;;;;;;;;5067461;28;20215;-61
2023/07/25 07:11:26;;;;;;;5.90;5.38;;;;;;;;;;5067771;28;20211;-62
2023/07/25 07:13:53;;;;;;;4.78;4.38;;;;;;;;;;5059762;28;20220;-62
2023/07/25 07:16:20;;;;;;;4.38;4.10;;;;;;;;;;5065345;28;20635;-62
2023/07/25 07:18:47;;;;;;;7.55;5.32;;;;;;;;;;5069725;28;20218;-64
2023/07/25 07:21:14;;;;;;;5.35;4.85;;;;;;;;;;5069816;28;20213;-65
2023/07/25 07:23:42;;;;;;;6.07;5.50;;;;;;;;;;5069728;28;20219;-65
2023/07/25 07:26:10;;;;;;;5.93;5.35;;;;;;;;;;5054887;28;20598;-65
2023/07/25 07:28:37;;;;;;;6.97;5.72;;;;;;;;;;5051597;28;20857;-64
2023/07/25 07:31:05;;;;;;;6.05;5.40;;;;;;;;;;5049461;28;20208;-63
2023/07/25 07:33:32;;;;;;;8.25;5.28;;;;;;;;;;5055615;28;20202;-63
2023/07/25 07:35:59;;;;;;;6.32;5.60;;;;;;;;;;5069248;28;20626;-63
2023/07/25 07:38:26;;;;;;;6.30;5.70;;;;;;;;;;5068739;28;20222;-66
2023/07/25 07:40:53;;;;;;;7.25;6.50;;;;;;;;;;5069335;28;20218;-64
2023/07/25 07:43:21;;;;;;;7.28;6.57;;;;;;;;;;5054279;28;20250;-64
2023/07/25 07:45:50;;;;;;;10.80;6.47;;;;;;;;;;5051219;28;20685;-64
2023/07/25 07:48:17;;;;;;;7.20;6.50;;;;;;;;;;5057111;28;20218;-68
2023/07/25 07:50:44;;;;;;;7.38;6.60;;;;;;;;;;5053342;28;20215;-63
2023/07/25 07:53:11;;;;;;;7.97;6.57;;;;;;;;;;5051605;28;20777;-63
2023/07/25 07:55:38;;;;;;;11.50;7.57;;;;;;;;;;5068395;28;20214;-64
2023/07/25 07:58:06;;;;;;;11.15;7.45;;;;;;;;;;5058526;28;20200;-63
2023/07/25 08:00:34;;;;;;;8.60;7.28;;;;;;;;;;5061708;28;20203;-63
2023/07/25 08:03:01;;;;;;;8.25;7.03;;;;;;;;;;5057163;28;20199;-63
2023/07/25 08:05:28;;;;;;;8.68;6.00;;;;;;;;;;5053828;28;20705;-63
2023/07/25 08:07:55;;;;;;;6.93;6.07;;;;;;;;;;5060130;28;20229;-63
2023/07/25 08:10:25;;;;;;;6.50;5.75;;;;;;;;;;5067725;28;20215;-64
2023/07/25 08:12:52;;;;;;;6.95;5.63;;;;;;;;;;5055153;28;20903;-64
2023/07/25 08:15:19;;;;;;;8.02;7.03;;;;;;;;;;5067753;28;20237;-63
2023/07/25 08:17:47;;;;;;;8.73;6.22;;;;;;;;;;5060001;28;20235;-63
2023/07/25 08:20:15;;;;;;;7.70;6.78;;;;;;;;;;5048661;28;20218;-63
2023/07/25 08:22:42;;;;;;;10.63;6.47;;;;;;;;;;5048570;28;20294;-63
2023/07/25 08:25:11;;;;;;;8.95;6.88;;;;;;;;;;5048316;28;20223;-63
2023/07/25 08:27:38;;;;;;;7.72;6.85;;;;;;;;;;5049503;28;20306;-63
2023/07/25 08:30:06;;;;;;;7.75;6.40;;;;;;;;;;5049556;28;20204;-63
2023/07/25 08:32:33;;;;;;;11.48;7.60;;;;;;;;;;5048749;28;20211;-63
2023/07/25 08:35:02;;;;;;;10.57;7.53;;;;;;;;;;5061142;28;20594;-63
2023/07/25 08:37:29;;;;;;;7.28;6.18;;;;;;;;;;5067832;28;20203;-64
2023/07/25 08:39:56;;;;;;;6.82;6.00;;;;;;;;;;5057838;28;20219;-63
2023/07/25 08:42:25;;;;;;;6.28;4.85;;;;;;;;;;5055330;28;20927;-63
2023/07/25 08:44:53;;;;;;;5.68;5.00;;;;;;;;;;5067673;28;20203;-64
2023/07/25 08:47:23;;;;;;;6.10;5.47;;;;;;;;;;5067938;28;20250;-64
2023/07/25 08:49:53;;;;;;;5.65;5.18;;;;;;;;;;5062345;28;20986;-63
2023/07/25 08:52:22;;;;;;;5.35;4.85;;;;;;;;;;5055184;28;20208;-62
2023/07/25 08:54:50;;;;;;;4.07;3.67;;;;;;;;;;5053516;28;20203;-63
2023/07/25 08:57:18;;;;;;;4.13;3.83;;;;;;;;;;5058458;28;20203;-63
2023/07/25 08:59:46;;;;;;;3.08;2.78;;;;;;;;;;5062506;28;20666;-63
2023/07/25 09:02:13;;;;;;;2.15;2.05;;;;;;;;;;5064265;28;20227;-63
2023/07/25 09:04:41;;;;;;;2.08;2.08;;;;;;;;;;5060585;28;20203;-62
2023/07/25 09:07:08;;;;;;;2.13;2.00;;;;;;;;;;5051762;28;20659;-63
2023/07/25 09:09:36;;;;;;;2.45;2.35;;;;;;;;;;5060103;28;20214;-63
2023/07/25 09:12:04;;;;;;;2.50;2.40;;;;;;;;;;5066208;28;20211;-63
2023/07/25 09:14:31;;;;;;;2.53;2.28;;;;;;;;;;5066442;28;20214;-62
2023/07/25 09:16:58;;;;;;;2.67;2.58;;;;;;;;;;5066354;28;20242;-62
2023/07/25 09:19:25;;;;;;;2.95;2.75;;;;;;;;;;5063876;28;20214;-62
2023/07/25 09:21:54;;;;;;;3.30;3.00;;;;;;;;;;5065228;28;20207;-62
2023/07/25 09:24:21;;;;;;;3.85;2.95;;;;;;;;;;5067718;28;20250;-63
2023/07/25 09:26:50;;;;;;;2.63;2.53;;;;;;;;;;5056341;28;20236;-62
2023/07/25 09:29:17;;;;;;;3.40;3.00;;;;;;;;;;5047763;28;20208;-62
2023/07/25 09:31:45;;;;;;;2.22;2.13;;;;;;;;;;5059975;28;20207;-62
2023/07/25 09:34:16;;;;;;;2.63;2.45;;;;;;;;;;5067643;28;20580;-62
2023/07/25 09:36:46;;;;;;;2.78;2.53;;;;;;;;;;5070107;28;20276;-63
2023/07/25 09:39:13;;;;;;;2.95;2.22;;;;;;;;;;5070230;28;20285;-63
2023/07/25 09:41:40;;;;;;;2.40;2.30;;;;;;;;;;5059032;28;20205;-62
2023/07/25 09:44:10;;;;;;;2.08;1.98;;;;;;;;;;5071833;28;20231;-62
2023/07/25 09:46:37;;;;;;;2.08;1.98;;;;;;;;;;5067501;28;20609;-62
2023/07/25 09:49:04;;;;;;;1.88;1.77;;;;;;;;;;5056793;28;20223;-62
2023/07/25 09:51:32;;;;;;;1.95;1.40;;;;;;;;;;5056237;28;20424;-63
2023/07/25 09:53:59;;;;;;;1.48;1.48;;;;;;;;;;5050412;28;20288;-63
2023/07/25 09:56:27;;;;;;;1.48;1.48;;;;;;;;;;5059762;28;20234;-62
2023/07/25 09:58:54;;;;;;;1.80;1.70;;;;;;;;;;5053284;28;20203;-64
2023/07/25 10:01:23;;;;;;;1.40;1.40;;;;;;;;;;5058537;28;20218;-61
2023/07/25 10:03:50;;;;;;;1.90;1.80;;;;;;;;;;5051101;28;20210;-62
2023/07/25 10:06:18;;;;;;;1.60;1.60;;;;;;;;;;5065393;28;20825;-63
2023/07/25 10:09:00;;;;;;;4.35;1.98;;;;;;;;;;5069141;28;20514;-65
2023/07/25 10:11:27;;;;;;;4.00;1.58;;;;;;;;;;5068977;28;20206;-65
2023/07/25 10:13:54;;;;;;;1.67;1.65;;;;;;;;;;5070111;28;20210;-62
2023/07/25 10:16:23;;;;;;;1.55;1.55;;;;;;;;;;5070231;28;20681;-64
2023/07/25 10:18:54;;;;;;;1.65;1.63;;;;;;;;;;5070446;28;20210;-64
2023/07/25 10:21:26;;;;;;;2.00;1.90;;;;;;;;;;5068532;28;20214;-64
2023/07/25 10:23:54;;;;;;;2.05;1.95;;;;;;;;;;5069963;28;20214;-60
2023/07/25 10:26:21;;;;;;;1.95;1.95;;;;;;;;;;5069011;28;20661;-61
2023/07/25 10:28:48;;;;;;;1.85;1.85;;;;;;;;;;5070282;28;20231;-61
2023/07/25 10:31:23;;;;;;;1.58;1.48;;;;;;;;;;5069154;28;20571;-61
2023/07/25 10:33:54;;;;;;;1.65;1.65;;;;;;;;;;5069905;28;20230;-61
2023/07/25 10:36:23;;;;;;;1.58;1.58;;;;;;;;;;5068807;28;20243;-60
2023/07/25 10:38:50;;;;;;;2.03;1.42;;;;;;;;;;5069954;28;20203;-69
2023/07/25 10:41:17;;;;;;;1.45;1.35;;;;;;;;;;5069142;28;20429;-61
2023/07/25 10:43:58;;;;;;;1.30;1.30;;;;;;;;;;5069886;28;20273;-60
2023/07/25 10:46:28;;;;;;;1.27;1.23;;;;;;;;;;5069202;28;20218;-60
2023/07/25 10:48:57;;;;;;;1.00;1.00;;;;;;;;;;5069056;28;20222;-61
2023/07/25 10:51:24;;;;;;;1.30;1.30;;;;;;;;;;5069669;28;20218;-61
2023/07/25 10:54:08;;;;;;;1.10;1.10;;;;;;;;;;5062275;28;20218;-61
2023/07/25 10:56:35;;;;;;;1.30;1.20;;;;;;;;;;5052318;28;21519;-60
2023/07/25 10:59:06;;;;;;;0.93;0.93;;;;;;;;;;5070407;28;20215;-60
2023/07/25 11:01:46;;;;;;;0.93;0.93;;;;;;;;;;5069534;28;20798;-60
2023/07/25 11:04:27;;;;;;;1.00;1.00;;;;;;;;;;5070106;28;20218;-64
2023/07/25 11:06:55;;;;;;;0.80;0.80;;;;;;;;;;5052206;28;20195;-61
2023/07/25 11:09:22;;;;;;;0.88;0.88;;;;;;;;;;5054466;28;20223;-60
2023/07/25 11:11:50;;;;;;;0.80;0.80;;;;;;;;;;5052152;28;20203;-60
2023/07/25 11:14:18;;;;;;;0.70;0.70;;;;;;;;;;5061613;28;20210;-60
2023/07/25 11:16:47;;;;;;;0.70;0.70;;;;;;;;;;5054736;28;20242;-60
2023/07/25 11:19:15;;;;;;;1.00;0.82;;;;;;;;;;5061788;28;20337;-60
2023/07/25 11:21:45;;;;;;;0.80;0.80;;;;;;;;;;5050469;28;20227;-60
2023/07/25 11:24:12;;;;;;;0.80;0.80;;;;;;;;;;5061387;28;20214;-60
2023/07/25 11:26:42;;;;;;;0.93;0.93;;;;;;;;;;5054385;28;20661;-60
2023/07/25 11:29:10;;;;;;;1.38;1.38;;;;;;;;;;5067251;28;20775;-60
2023/07/25 11:31:41;;;;;;;1.17;1.10;;;;;;;;;;5060570;28;20558;-61
2023/07/25 11:34:09;;;;;;;1.13;1.13;;;;;;;;;;5069296;28;20238;-60
2023/07/25 11:36:38;;;;;;;1.10;1.10;;;;;;;;;;5068655;28;20218;-61
2023/07/25 11:39:06;;;;;;;1.52;1.30;;;;;;;;;;5068335;28;20199;-60
2023/07/25 11:41:34;;;;;;;1.08;1.08;;;;;;;;;;5069309;28;20221;-61
2023/07/25 11:44:01;;;;;;;1.00;1.00;;;;;;;;;;5049054;28;20243;-61
2023/07/25 11:46:28;;;;;;;0.75;0.75;;;;;;;;;;5049422;28;20212;-61
2023/07/25 11:48:55;;;;;;;0.90;0.90;;;;;;;;;;5067884;28;20246;-61
2023/07/25 11:51:23;;;;;;;1.00;1.00;;;;;;;;;;5069135;28;20211;-60
2023/07/25 11:53:50;;;;;;;1.10;1.00;;;;;;;;;;5068191;28;20213;-61
2023/07/25 11:56:18;;;;;;;0.70;0.70;;;;;;;;;;5068309;28;20219;-61
2023/07/25 11:58:48;;;;;;;0.77;0.77;;;;;;;;;;5068838;28;20210;-62
2023/07/25 12:01:15;;;;;;;1.60;0.80;;;;;;;;;;5068006;28;20552;-61
2023/07/25 12:03:47;;;;;;;0.68;0.68;;;;;;;;;;5068052;28;20207;-61
2023/07/25 12:06:14;;;;;;;0.70;0.70;;;;;;;;;;5057165;28;20227;-61
2023/07/25 12:08:42;;;;;;;0.70;0.70;;;;;;;;;;5068068;28;20230;-61
2023/07/25 12:11:10;;;;;;;0.50;0.50;;;;;;;;;;5065882;28;20199;-61
2023/07/25 12:13:45;;;;;;;0.85;0.60;;;;;;;;;;5053064;28;20211;-61
2023/07/25 12:16:24;;;;;;;0.98;0.98;;;;;;;;;;5055759;28;20195;-61
2023/07/25 12:18:53;;;;;;;0.73;0.63;;;;;;;;;;5063367;28;20563;-60
2023/07/25 12:21:23;;;;;;;0.80;0.80;;;;;;;;;;5048722;28;20214;-61
2023/07/25 12:23:52;;;;;;;0.70;0.70;;;;;;;;;;5065400;28;20207;-61
2023/07/25 12:26:21;;;;;;;0.90;0.90;;;;;;;;;;5061275;28;20199;-61
2023/07/25 12:28:49;;;;;;;0.88;0.88;;;;;;;;;;5064214;28;20255;-60
2023/07/25 12:31:17;;;;;;;0.60;0.60;;;;;;;;;;5065805;28;20711;-61
2023/07/25 12:33:44;;;;;;;0.70;0.70;;;;;;;;;;5068344;28;20214;-61
2023/07/25 12:36:12;;;;;;;0.82;0.82;;;;;;;;;;5053907;28;20207;-61
2023/07/25 12:38:39;;;;;;;0.70;0.70;;;;;;;;;;5062382;28;20684;-62
2023/07/25 12:41:06;;;;;;;0.60;0.60;;;;;;;;;;5060615;28;20211;-61
2023/07/25 12:43:33;;;;;;;0.70;0.70;;;;;;;;;;5067420;28;20238;-60
2023/07/25 12:46:02;;;;;;;0.85;0.85;;;;;;;;;;5066533;28;20203;-61
2023/07/25 12:48:29;;;;;;;0.60;0.60;;;;;;;;;;5068040;28;20644;-61
2023/07/25 12:50:56;;;;;;;0.57;0.57;;;;;;;;;;5068227;28;20604;-62
2023/07/25 12:53:23;;;;;;;0.75;0.75;;;;;;;;;;5067377;28;20609;-61
2023/07/25 12:55:50;;;;;;;1.05;0.70;;;;;;;;;;5068399;28;20214;-61
2023/07/25 12:58:17;;;;;;;0.95;0.95;;;;;;;;;;5059756;28;20203;-60
2023/07/25 13:00:44;;;;;;;0.55;0.55;;;;;;;;;;5048237;28;20215;-61
2023/07/25 13:03:13;;;;;;;0.70;0.70;;;;;;;;;;5063601;28;20320;-61
2023/07/25 13:05:40;;;;;;;0.85;0.80;;;;;;;;;;5067306;28;20207;-61
2023/07/25 13:08:08;;;;;;;0.75;0.75;;;;;;;;;;5067824;28;20258;-61
2023/07/25 13:10:35;;;;;;;1.00;1.00;;;;;;;;;;5065956;28;20203;-61
2023/07/25 13:13:02;;;;;;;1.33;0.82;;;;;;;;;;5067528;28;20681;-61
2023/07/25 13:15:29;;;;;;;0.85;0.85;;;;;;;;;;5067899;28;20268;-61
2023/07/25 13:17:56;;;;;;;0.88;0.88;;;;;;;;;;5067373;28;20239;-61
2023/07/25 13:20:24;;;;;;;1.00;1.00;;;;;;;;;;5067946;28;20923;-61
2023/07/25 13:22:51;;;;;;;0.98;0.98;;;;;;;;;;5060181;28;20211;-60
2023/07/25 13:25:18;;;;;;;1.05;1.05;;;;;;;;;;5067568;28;20266;-61
2023/07/25 13:27:45;;;;;;;1.35;1.25;;;;;;;;;;5066039;28;20250;-61
2023/07/25 13:30:13;;;;;;;1.08;1.08;;;;;;;;;;5058206;28;20229;-60
2023/07/25 13:32:40;;;;;;;1.33;1.30;;;;;;;;;;5062370;28;20199;-61
2023/07/25 13:35:07;;;;;;;0.90;0.90;;;;;;;;;;5066491;28;20215;-61
2023/07/25 13:37:36;;;;;;;1.05;1.05;;;;;;;;;;5058440;28;20213;-61
2023/07/25 13:40:03;;;;;;;1.13;1.13;;;;;;;;;;5050569;28;20203;-59
2023/07/25 13:42:31;;;;;;;1.27;1.27;;;;;;;;;;5067414;28;20326;-59
2023/07/25 13:44:58;;;;;;;0.98;0.98;;;;;;;;;;5058254;28;20208;-60
2023/07/25 13:47:25;;;;;;;1.10;1.10;;;;;;;;;;5055757;28;20199;-58
2023/07/25 13:49:52;;;;;;;1.50;1.40;;;;;;;;;;5066933;28;20348;-61
2023/07/25 13:52:19;;;;;;;1.60;1.10;;;;;;;;;;5067024;28;20226;-61
2023/07/25 13:54:48;;;;;;;1.50;1.30;;;;;;;;;;5061686;28;20558;-61
2023/07/25 13:57:15;;;;;;;1.27;1.27;;;;;;;;;;5060924;28;20210;-61
2023/07/25 13:59:42;;;;;;;1.20;1.20;;;;;;;;;;5067332;28;20207;-61
2023/07/25 14:02:09;;;;;;;1.60;1.60;;;;;;;;;;5053560;28;20207;-61
2023/07/25 14:04:39;;;;;;;1.67;1.67;;;;;;;;;;5066670;28;20665;-59
2023/07/25 14:07:06;;;;;;;1.85;1.33;;;;;;;;;;5066258;28;20306;-62
2023/07/25 14:09:33;;;;;;;1.98;1.80;;;;;;;;;;5066735;28;20239;-59
2023/07/25 14:12:02;;;;;;;1.70;1.70;;;;;;;;;;5065111;28;20616;-59
2023/07/25 14:14:29;;;;;;;1.63;1.60;;;;;;;;;;5056481;28;20204;-58
2023/07/25 14:16:56;;;;;;;1.70;1.60;;;;;;;;;;5053172;28;20250;-58
2023/07/25 14:19:23;;;;;;;1.52;1.52;;;;;;;;;;5053549;28;20206;-58
2023/07/25 14:21:50;;;;;;;1.45;1.45;;;;;;;;;;5055487;28;20216;-58
2023/07/25 14:24:17;;;;;;;1.65;1.65;;;;;;;;;;5058126;28;20598;-58
2023/07/25 14:26:44;;;;;;;1.23;1.23;;;;;;;;;;5059396;28;20218;-59
2023/07/25 14:29:12;;;;;;;1.75;1.65;;;;;;;;;;5054676;28;20227;-58
2023/07/25 14:31:39;;;;;;;1.58;1.30;;;;;;;;;;5059343;28;20199;-58
2023/07/25 14:34:06;;;;;;;1.10;1.10;;;;;;;;;;5060746;28;20282;-58
2023/07/25 14:36:33;;;;;;;1.65;1.52;;;;;;;;;;5058161;28;20585;-58
2023/07/25 14:39:00;;;;;;;1.30;1.20;;;;;;;;;;5058832;28;20207;-58
2023/07/25 14:41:28;;;;;;;2.22;1.55;;;;;;;;;;5059556;28;20214;-59
2023/07/25 14:43:55;;;;;;;2.20;1.38;;;;;;;;;;5057154;28;20230;-58
2023/07/25 14:46:23;;;;;;;2.65;1.45;;;;;;;;;;5058946;28;20596;-59